Pagrindinis puslapis
METAR-TAF:

METAR-TAF

Oro uostai :

Macujama, Japonija

platuma: 33-49N, ilguma: 132-42E, Aukštis: 4 m

Dabartinis oras

Ataskaita buvo paskelbta 4 valandos ir 22 minutes, ne 12:00 UTC
Vėjas 8 kt iš Šiaurės Rytų
Temperatūra 9°C
Drėgmė 61%
Slėgis 1024 hPa
Matomumas 10 km arba daugiau
Mažai debesys ne aukštis 3000 ft
Išsisklaidę debesys ne aukštis 4000 ft

METAR: RJOM 071200Z 05008KT 9999 FEW030 SCT040 09/02 Q1024

Laikas: 01:22 (16:22 UTC)

Prognozė

Ataskaita buvo paskelbta 5 valandos ir 14 minutes, ne 11:08 UTC
Prognozė galioja nuo 07 metu 12 UTC su 08 metu 18 UTC
Vėjas 6 kt iš Rytų/Pietryčių
Matomumas 10 km arba daugiau
Mažai debesys ne aukštis 3000 ft
Tapsmas
nuo 08 metu 00 UTC su 08 metu 03 UTC
Vėjas 8 kt iš Šiaurės
Tapsmas
nuo 08 metu 09 UTC su 08 metu 12 UTC
Vėjas 8 kt iš Rytų/Pietryčių

TAF: RJOM 071108Z 0712/0818 12006KT 9999 FEW030 BECMG 0800/0803 01008KT BECMG 0809/0812 12008KT

Orai ataskaitas ir orų prognozės (METAR, TAF).

turimą stotys yra geltonos ir raudonos taškus žemėlapyje.

Perkelti pele per norėdami pamatyti stoties vardą.

Tada spustelėkite, norėdami matyti oro stebėjimo ir prognozės.

Norėdami pakeisti žemėlapį: spustelėkite ant žalios mygtukų su juodo kryžiaus žemyn,; žalią mygtuką su brūkšneliu, jei norite nutolinti; arba žalių rodyklių gretimoms žemėlapius.


METAR-TAF: